Alapaha, GA (31622)

12:27 AM EDT on September 02, 2014 (GMT -0400)
Forest Lakes | Change Station
CLOSE
Current Station
Personal Weather Station
Location: Tifton, GA
Elevation: 329 ft
Nearby Weather Stations

Elev 329 ft 31.50 °N, 83.44 °W | Updated 2 minutes ago

Thunderstorm
Thunderstorm
76.7 °F
Feels Like 77 °F
N
2.0
Wind Variable Wind from ESE
Gusts 6.0 mph

Today
High -- | Low -- °F
--% Chance of Precip.
Yesterday
High -- | Low -- °F
Precip. -- in
7:09 AM 7:55 PM
Waxing Crescent, 47% visible
Pressure 30.13 in
Visibility 10.0 miles
Clouds Mostly Cloudy 5500 ft
Overcast 7500 ft
Heat Index 77 °F
Dew Point 74 °F
Humidity 91%
Rainfall 0.00 in
Snow Depth Not available.
UV 0 out of 12
Pollen 8.30 out of 12
Air Quality Not available.
Flu Activity Not available.
METAR KTMA 020410Z AUTO 17005KT 10SM BKN055 OVC075 25/23 A3013 RMK AO2 T02520231 TSNO

More Conditions Fewer Conditions

Pressure 30.13 in
Visibility 10.0 miles
Clouds Mostly Cloudy 5500 ft
Overcast 7500 ft
Heat Index 77 °F
Dew Point 74 °F
Humidity 91%
Rainfall 0.00 in
Snow Depth Not available.
UV 0 out of 12
Pollen 8.30 out of 12
Air Quality Not available.
Flu Activity Not available.
METAR KTMA 020410Z AUTO 17005KT 10SM BKN055 OVC075 25/23 A3013 RMK AO2 T02520231 TSNO

More Conditions Fewer Conditions

10-Day Weather Forecast

Almanac

Astronomy

Sep. 02, 2014 Rise Set
Actual Time 7:09 AM EDT 7:55 PM EDT
Civil Twilight 6:44 AM EDT 8:19 PM EDT
Nautical Twilight 6:15 AM EDT 8:48 PM EDT
Astronomical Twilight 5:45 AM EDT 9:18 PM EDT
Moon 2:25 PM EDT 12:22 AM EDT
Length of Visible Light 13h 35m
Length of Day
12h 45m
Tomorrow will be 1m 50s shorter.
Waxing Crescent, 47% of the Moon is Illuminated
Today
Waxing Crescent
Sep 2
First Quarter
Sep 8
Full
Sep 15
Last Quarter
Sep 24
New

Yesterday's Extremes

State Highs State Lows

Community

WunderPhotos

Upload Photos

1,749,560 photos uploaded!

WunderBlogs® & News

Nearby

Snow Depth

Station Depth Elevation
No new snow has been reported.

Earthquake Activity

City Distance Mag. Time & Date
No recent earthquake activity has been reported nearby.
Minimum magnitude displayed is 2.5.

Coastal Water Temperatures

Place Temperature
No Stations Reporting

Nearby Weather Stations